Famagusta, Cyprus
Current Conditions -  °F | °C
As of 2:50 AM on Saturday 20 Dec 2014 (Local Time) from LCEN Reporting Station
Haze Haze  
Wind Chill: 50°   Ceiling: Unl
Heat Index: 50°   Visibility: 3mi
Dew Point: 48°   Wind: 6mph
Humidity: 94%   Direction: 260°W
Pressure: 30.09"   Gusts: NA
Location:  35.33°N, 34.07°E
Report Text: LCEN 192350Z 26005KT 5000 BR FEW020 SCT100 10/09 Q1019
Loading
Personal Weather Stations






























Interactive Weather Map New forecast layout! Learn more

10-Day Weather Forecast

Advertisements
Track Severe Weather on mobile